sensor_id;sensor_type;location;lat;lon;timestamp;pressure;altitude;pressure_sealevel;temperature;humidity
25420;BME280;13354;48.174;11.566;2023-02-16T00:01:52;96730.63;;;1.98;92.63
25420;BME280;13354;48.174;11.566;2023-02-16T00:04:21;96728.97;;;1.97;92.15
25420;BME280;13354;48.174;11.566;2023-02-16T00:06:47;96734.06;;;1.98;92.21
25420;BME280;13354;48.174;11.566;2023-02-16T00:09:13;96732.41;;;1.97;91.98
25420;BME280;13354;48.174;11.566;2023-02-16T00:11:38;96724.81;;;1.94;91.63
25420;BME280;13354;48.174;11.566;2023-02-16T00:14:22;96736.56;;;1.88;91.58
25420;BME280;13354;48.174;11.566;2023-02-16T00:16:50;96725.88;;;1.91;91.46
25420;BME280;13354;48.174;11.566;2023-02-16T00:19:20;96725.16;;;1.89;91.25
25420;BME280;13354;48.174;11.566;2023-02-16T00:21:46;96726.81;;;1.90;91.10
25420;BME280;13354;48.174;11.566;2023-02-16T00:24:11;96723.84;;;1.95;90.67
25420;BME280;13354;48.174;11.566;2023-02-16T00:26:37;96712.34;;;1.98;90.37
25420;BME280;13354;48.174;11.566;2023-02-16T00:29:03;96712.97;;;2.01;89.84
25420;BME280;13354;48.174;11.566;2023-02-16T00:31:28;96710.47;;;2.00;89.41
25420;BME280;13354;48.174;11.566;2023-02-16T00:33:57;96701.31;;;1.94;88.81
25420;BME280;13354;48.174;11.566;2023-02-16T00:36:22;96701.44;;;1.92;88.25
25420;BME280;13354;48.174;11.566;2023-02-16T00:38:47;96697.00;;;1.82;87.96
25420;BME280;13354;48.174;11.566;2023-02-16T00:41:19;96696.03;;;1.83;87.72
25420;BME280;13354;48.174;11.566;2023-02-16T00:44:14;96698.88;;;1.80;88.12
25420;BME280;13354;48.174;11.566;2023-02-16T00:46:40;96693.88;;;1.77;88.20
25420;BME280;13354;48.174;11.566;2023-02-16T00:49:09;96685.06;;;1.66;88.75
25420;BME280;13354;48.174;11.566;2023-02-16T00:51:36;96679.38;;;1.73;88.98
25420;BME280;13354;48.174;11.566;2023-02-16T00:54:01;96692.78;;;1.68;89.00
25420;BME280;13354;48.174;11.566;2023-02-16T00:56:26;96690.38;;;1.65;89.09
25420;BME280;13354;48.174;11.566;2023-02-16T00:58:52;96700.13;;;1.63;88.95
25420;BME280;13354;48.174;11.566;2023-02-16T01:01:17;96692.28;;;1.63;89.12
25420;BME280;13354;48.174;11.566;2023-02-16T01:03:44;96688.72;;;1.64;89.18
25420;BME280;13354;48.174;11.566;2023-02-16T01:06:10;96690.38;;;1.65;89.07
25420;BME280;13354;48.174;11.566;2023-02-16T01:08:54;96687.16;;;1.61;89.14
25420;BME280;13354;48.174;11.566;2023-02-16T01:11:43;96681.63;;;1.66;89.31
25420;BME280;13354;48.174;11.566;2023-02-16T01:14:09;96684.00;;;1.69;89.08
25420;BME280;13354;48.174;11.566;2023-02-16T01:16:37;96685.69;;;1.70;88.76
25420;BME280;13354;48.174;11.566;2023-02-16T01:19:03;96687.34;;;1.71;87.75
25420;BME280;13354;48.174;11.566;2023-02-16T01:21:28;96691.69;;;1.59;87.66
25420;BME280;13354;48.174;11.566;2023-02-16T01:23:53;96693.69;;;1.56;87.98
25420;BME280;13354;48.174;11.566;2023-02-16T01:26:19;96693.56;;;1.57;87.98
25420;BME280;13354;48.174;11.566;2023-02-16T01:28:45;96702.97;;;1.47;88.21
25420;BME280;13354;48.174;11.566;2023-02-16T01:31:10;96705.72;;;1.45;88.52
25420;BME280;13354;48.174;11.566;2023-02-16T01:33:36;96702.50;;;1.42;88.32
25420;BME280;13354;48.174;11.566;2023-02-16T01:36:02;96704.38;;;1.40;88.71
25420;BME280;13354;48.174;11.566;2023-02-16T01:38:28;96708.75;;;1.39;88.61
25420;BME280;13354;48.174;11.566;2023-02-16T01:40:59;96704.97;;;1.43;88.88
25420;BME280;13354;48.174;11.566;2023-02-16T01:43:29;96695.22;;;1.34;88.76
25420;BME280;13354;48.174;11.566;2023-02-16T01:45:58;96704.72;;;1.35;88.63
25420;BME280;13354;48.174;11.566;2023-02-16T01:48:27;96694.47;;;1.32;88.21
25420;BME280;13354;48.174;11.566;2023-02-16T01:53:37;96696.00;;;1.24;87.84
25420;BME280;13354;48.174;11.566;2023-02-16T01:56:07;96695.50;;;1.18;87.81
25420;BME280;13354;48.174;11.566;2023-02-16T01:58:39;96691.75;;;1.10;87.56
25420;BME280;13354;48.174;11.566;2023-02-16T02:03:44;96700.31;;;0.99;87.68
25420;BME280;13354;48.174;11.566;2023-02-16T02:06:31;96697.41;;;1.04;87.97
25420;BME280;13354;48.174;11.566;2023-02-16T02:11:26;96691.59;;;1.00;87.96
25420;BME280;13354;48.174;11.566;2023-02-16T02:16:23;96678.63;;;0.99;87.50
25420;BME280;13354;48.174;11.566;2023-02-16T02:18:49;96678.09;;;1.06;87.65
25420;BME280;13354;48.174;11.566;2023-02-16T02:24:23;96676.56;;;1.04;86.60
25420;BME280;13354;48.174;11.566;2023-02-16T02:32:17;96676.97;;;0.98;85.31
25420;BME280;13354;48.174;11.566;2023-02-16T02:37:41;96670.53;;;0.90;85.78
25420;BME280;13354;48.174;11.566;2023-02-16T02:40:21;96676.16;;;0.84;85.71
25420;BME280;13354;48.174;11.566;2023-02-16T02:45:27;96669.69;;;0.90;85.65
25420;BME280;13354;48.174;11.566;2023-02-16T02:47:54;96670.72;;;0.87;85.38
25420;BME280;13354;48.174;11.566;2023-02-16T02:53:04;96663.75;;;0.88;84.87
25420;BME280;13354;48.174;11.566;2023-02-16T02:55:30;96667.84;;;0.79;85.00
25420;BME280;13354;48.174;11.566;2023-02-16T02:58:15;96669.41;;;0.69;85.48
25420;BME280;13354;48.174;11.566;2023-02-16T03:01:00;96666.09;;;0.67;85.85
25420;BME280;13354;48.174;11.566;2023-02-16T03:03:27;96667.44;;;0.72;85.74
25420;BME280;13354;48.174;11.566;2023-02-16T03:06:07;96667.75;;;0.68;85.27
25420;BME280;13354;48.174;11.566;2023-02-16T03:08:34;96663.56;;;0.65;85.26
25420;BME280;13354;48.174;11.566;2023-02-16T03:11:08;96666.19;;;0.65;85.12
25420;BME280;13354;48.174;11.566;2023-02-16T03:13:58;96663.69;;;0.64;85.20
25420;BME280;13354;48.174;11.566;2023-02-16T03:16:25;96663.69;;;0.64;85.84
25420;BME280;13354;48.174;11.566;2023-02-16T03:18:51;96660.56;;;0.59;85.95
25420;BME280;13354;48.174;11.566;2023-02-16T03:21:36;96656.50;;;0.67;85.74
25420;BME280;13354;48.174;11.566;2023-02-16T03:24:24;96660.13;;;0.65;85.18
25420;BME280;13354;48.174;11.566;2023-02-16T03:27:09;96663.06;;;0.60;85.15
25420;BME280;13354;48.174;11.566;2023-02-16T03:29:54;96665.16;;;0.55;85.59
25420;BME280;13354;48.174;11.566;2023-02-16T03:32:20;96665.69;;;0.47;85.68
25420;BME280;13354;48.174;11.566;2023-02-16T03:34:45;96670.38;;;0.42;85.96
25420;BME280;13354;48.174;11.566;2023-02-16T03:37:11;96671.53;;;0.38;86.36
25420;BME280;13354;48.174;11.566;2023-02-16T03:39:36;96675.72;;;0.41;86.85
25420;BME280;13354;48.174;11.566;2023-02-16T03:42:21;96677.38;;;0.42;86.57
25420;BME280;13354;48.174;11.566;2023-02-16T03:44:47;96676.53;;;0.41;86.33
25420;BME280;13354;48.174;11.566;2023-02-16T03:47:13;96673.31;;;0.38;86.11
25420;BME280;13354;48.174;11.566;2023-02-16T03:49:38;96682.38;;;0.32;86.29
25420;BME280;13354;48.174;11.566;2023-02-16T03:52:04;96679.66;;;0.34;85.85
25420;BME280;13354;48.174;11.566;2023-02-16T03:54:29;96683.72;;;0.38;85.86
25420;BME280;13354;48.174;11.566;2023-02-16T03:56:54;96693.09;;;0.40;85.36
25420;BME280;13354;48.174;11.566;2023-02-16T03:59:19;96696.13;;;0.47;84.93
25420;BME280;13354;48.174;11.566;2023-02-16T04:01:45;96693.94;;;0.54;84.84
25420;BME280;13354;48.174;11.566;2023-02-16T04:04:10;96692.06;;;0.56;84.45
25420;BME280;13354;48.174;11.566;2023-02-16T04:06:36;96697.03;;;0.59;84.37
25420;BME280;13354;48.174;11.566;2023-02-16T04:09:01;96686.75;;;0.57;84.27
25420;BME280;13354;48.174;11.566;2023-02-16T04:11:26;96686.94;;;0.54;83.57
25420;BME280;13354;48.174;11.566;2023-02-16T04:14:10;96687.16;;;0.51;83.48
25420;BME280;13354;48.174;11.566;2023-02-16T04:16:35;96688.00;;;0.52;83.50
25420;BME280;13354;48.174;11.566;2023-02-16T04:19:00;96693.94;;;0.41;83.72
25420;BME280;13354;48.174;11.566;2023-02-16T04:21:26;96691.03;;;0.45;83.87
25420;BME280;13354;48.174;11.566;2023-02-16T04:23:51;96692.69;;;0.46;83.51
25420;BME280;13354;48.174;11.566;2023-02-16T04:26:16;96687.03;;;0.40;83.45
25420;BME280;13354;48.174;11.566;2023-02-16T04:28:42;96684.56;;;0.38;83.95
25420;BME280;13354;48.174;11.566;2023-02-16T04:31:07;96688.19;;;0.36;83.85
25420;BME280;13354;48.174;11.566;2023-02-16T04:33:32;96686.94;;;0.29;83.75
25420;BME280;13354;48.174;11.566;2023-02-16T04:35:58;96686.75;;;0.32;83.61
25420;BME280;13354;48.174;11.566;2023-02-16T04:38:23;96686.44;;;0.23;83.75
25420;BME280;13354;48.174;11.566;2023-02-16T04:40:50;96688.00;;;0.26;83.84
25420;BME280;13354;48.174;11.566;2023-02-16T04:43:15;96687.25;;;0.24;83.94
25420;BME280;13354;48.174;11.566;2023-02-16T04:45:40;96692.78;;;0.19;83.79
25420;BME280;13354;48.174;11.566;2023-02-16T04:48:05;96691.00;;;0.20;84.01
25420;BME280;13354;48.174;11.566;2023-02-16T04:50:30;96692.66;;;0.21;84.35
25420;BME280;13354;48.174;11.566;2023-02-16T04:52:55;96685.59;;;0.23;84.22
25420;BME280;13354;48.174;11.566;2023-02-16T04:55:21;96687.88;;;0.28;84.30
25420;BME280;13354;48.174;11.566;2023-02-16T04:57:46;96686.53;;;0.22;84.06
25420;BME280;13354;48.174;11.566;2023-02-16T05:00:11;96696.31;;;0.18;84.06
25420;BME280;13354;48.174;11.566;2023-02-16T05:02:36;96693.50;;;0.09;84.26
25420;BME280;13354;48.174;11.566;2023-02-16T05:05:02;96688.50;;;0.06;84.25
25420;BME280;13354;48.174;11.566;2023-02-16T05:07:27;96693.59;;;0.07;84.60
25420;BME280;13354;48.174;11.566;2023-02-16T05:09:52;96690.50;;;0.15;84.44
25420;BME280;13354;48.174;11.566;2023-02-16T05:12:17;96687.91;;;0.15;84.19
25420;BME280;13354;48.174;11.566;2023-02-16T05:15:01;96688.81;;;0.14;84.32
25420;BME280;13354;48.174;11.566;2023-02-16T05:17:26;96693.09;;;0.15;84.03
25420;BME280;13354;48.174;11.566;2023-02-16T05:19:52;96693.31;;;0.12;84.19
25420;BME280;13354;48.174;11.566;2023-02-16T05:22:18;96696.31;;;0.18;84.19
25420;BME280;13354;48.174;11.566;2023-02-16T05:24:44;96688.72;;;0.15;84.29
25420;BME280;13354;48.174;11.566;2023-02-16T05:27:14;96686.31;;;0.12;83.98
25420;BME280;13354;48.174;11.566;2023-02-16T05:29:40;96692.47;;;0.11;84.17
25420;BME280;13354;48.174;11.566;2023-02-16T05:32:05;96689.56;;;0.16;84.00
25420;BME280;13354;48.174;11.566;2023-02-16T05:34:30;96695.72;;;0.15;83.95
25420;BME280;13354;48.174;11.566;2023-02-16T05:36:55;96690.78;;;0.10;84.11
25420;BME280;13354;48.174;11.566;2023-02-16T05:39:21;96707.56;;;0.06;84.17
25420;BME280;13354;48.174;11.566;2023-02-16T05:41:46;96706.53;;;0.09;84.08
25420;BME280;13354;48.174;11.566;2023-02-16T05:44:12;96705.59;;;0.10;84.03
25420;BME280;13354;48.174;11.566;2023-02-16T05:46:37;96712.69;;;0.08;84.27
25420;BME280;13354;48.174;11.566;2023-02-16T05:49:03;96716.19;;;0.07;83.93
25420;BME280;13354;48.174;11.566;2023-02-16T05:51:28;96716.41;;;0.04;83.10
25420;BME280;13354;48.174;11.566;2023-02-16T05:53:54;96715.47;;;0.05;83.54
25420;BME280;13354;48.174;11.566;2023-02-16T05:56:19;96715.56;;;0.03;83.38
25420;BME280;13354;48.174;11.566;2023-02-16T05:58:44;96720.06;;;0.01;83.79
25420;BME280;13354;48.174;11.566;2023-02-16T06:01:10;96721.59;;;0.04;83.98
25420;BME280;13354;48.174;11.566;2023-02-16T06:03:35;96726.72;;;0.05;83.89
25420;BME280;13354;48.174;11.566;2023-02-16T06:06:01;96719.75;;;0.06;83.83
25420;BME280;13354;48.174;11.566;2023-02-16T06:08:27;96735.69;;;0.01;84.21
25420;BME280;13354;48.174;11.566;2023-02-16T06:10:53;96725.78;;;0.06;84.58
25420;BME280;13354;48.174;11.566;2023-02-16T06:13:18;96731.53;;;0.11;84.88
25420;BME280;13354;48.174;11.566;2023-02-16T06:15:44;96727.88;;;0.14;84.90
25420;BME280;13354;48.174;11.566;2023-02-16T06:18:09;96726.97;;;0.15;84.65
25420;BME280;13354;48.174;11.566;2023-02-16T06:20:35;96723.50;;;0.14;84.80
25420;BME280;13354;48.174;11.566;2023-02-16T06:23:01;96731.94;;;0.18;85.47
25420;BME280;13354;48.174;11.566;2023-02-16T06:25:26;96730.78;;;0.22;85.78
25420;BME280;13354;48.174;11.566;2023-02-16T06:27:51;96725.41;;;0.51;85.50
25420;BME280;13354;48.174;11.566;2023-02-16T06:30:16;96727.59;;;0.57;86.27
25420;BME280;13354;48.174;11.566;2023-02-16T06:32:43;96740.31;;;0.74;85.99
25420;BME280;13354;48.174;11.566;2023-02-16T06:35:08;96732.97;;;0.92;85.31
25420;BME280;13354;48.174;11.566;2023-02-16T06:37:33;96736.75;;;1.01;84.71
25420;BME280;13354;48.174;11.566;2023-02-16T06:39:59;96740.69;;;1.06;84.27
25420;BME280;13354;48.174;11.566;2023-02-16T06:42:24;96733.88;;;1.16;83.84
25420;BME280;13354;48.174;11.566;2023-02-16T06:44:49;96747.63;;;1.31;83.23
25420;BME280;13354;48.174;11.566;2023-02-16T06:47:14;96745.13;;;1.30;82.95
25420;BME280;13354;48.174;11.566;2023-02-16T06:49:40;96750.13;;;1.33;82.96
25420;BME280;13354;48.174;11.566;2023-02-16T06:52:05;96747.88;;;1.52;83.09
25420;BME280;13354;48.174;11.566;2023-02-16T06:54:30;96757.84;;;1.58;82.66
25420;BME280;13354;48.174;11.566;2023-02-16T06:56:55;96757.28;;;1.55;82.60
25420;BME280;13354;48.174;11.566;2023-02-16T06:59:21;96746.97;;;1.64;82.55
25420;BME280;13354;48.174;11.566;2023-02-16T07:01:46;96759.00;;;1.67;82.48
25420;BME280;13354;48.174;11.566;2023-02-16T07:04:11;96753.44;;;1.72;82.29
25420;BME280;13354;48.174;11.566;2023-02-16T07:06:36;96750.47;;;1.76;81.92
25420;BME280;13354;48.174;11.566;2023-02-16T07:09:02;96753.03;;;1.89;81.88
25420;BME280;13354;48.174;11.566;2023-02-16T07:11:27;96759.97;;;2.01;81.70
25420;BME280;13354;48.174;11.566;2023-02-16T07:13:53;96764.25;;;2.02;81.17
25420;BME280;13354;48.174;11.566;2023-02-16T07:16:18;96762.16;;;2.07;81.12
25420;BME280;13354;48.174;11.566;2023-02-16T07:18:43;96765.81;;;2.05;81.20
25420;BME280;13354;48.174;11.566;2023-02-16T07:21:10;96768.91;;;2.10;81.06
25420;BME280;13354;48.174;11.566;2023-02-16T07:23:35;96767.59;;;2.04;81.41
25420;BME280;13354;48.174;11.566;2023-02-16T07:26:00;96767.81;;;2.01;82.12
25420;BME280;13354;48.174;11.566;2023-02-16T07:28:25;96769.47;;;2.02;82.42
25420;BME280;13354;48.174;11.566;2023-02-16T07:30:51;96770.31;;;2.03;82.67
25420;BME280;13354;48.174;11.566;2023-02-16T07:33:16;96775.56;;;2.03;83.28
25420;BME280;13354;48.174;11.566;2023-02-16T07:35:42;96771.97;;;2.04;83.58
25420;BME280;13354;48.174;11.566;2023-02-16T07:38:07;96760.97;;;2.11;83.85
25420;BME280;13354;48.174;11.566;2023-02-16T07:40:32;96770.59;;;2.11;84.09
25420;BME280;13354;48.174;11.566;2023-02-16T07:42:58;96766.81;;;2.15;84.31
25420;BME280;13354;48.174;11.566;2023-02-16T07:45:24;96770.50;;;2.24;84.28
25420;BME280;13354;48.174;11.566;2023-02-16T07:47:49;96769.84;;;2.33;84.31
25420;BME280;13354;48.174;11.566;2023-02-16T07:50:14;96768.22;;;2.43;84.65
25420;BME280;13354;48.174;11.566;2023-02-16T07:52:40;96767.88;;;2.59;84.02
25420;BME280;13354;48.174;11.566;2023-02-16T07:55:05;96764.56;;;2.79;83.55
25420;BME280;13354;48.174;11.566;2023-02-16T07:57:31;96768.53;;;2.96;83.00
25420;BME280;13354;48.174;11.566;2023-02-16T07:59:56;96774.00;;;3.15;82.11
25420;BME280;13354;48.174;11.566;2023-02-16T08:02:21;96771.00;;;3.31;81.25
25420;BME280;13354;48.174;11.566;2023-02-16T08:04:47;96767.91;;;3.49;80.04
25420;BME280;13354;48.174;11.566;2023-02-16T08:07:16;96772.63;;;3.66;79.60
25420;BME280;13354;48.174;11.566;2023-02-16T08:09:41;96768.06;;;3.91;78.55
25420;BME280;13354;48.174;11.566;2023-02-16T08:12:10;96770.00;;;4.09;77.46
25420;BME280;13354;48.174;11.566;2023-02-16T08:14:36;96777.97;;;4.08;75.95
25420;BME280;13354;48.174;11.566;2023-02-16T08:17:01;96773.09;;;4.15;76.31
25420;BME280;13354;48.174;11.566;2023-02-16T08:19:26;96779.25;;;4.25;75.57
25420;BME280;13354;48.174;11.566;2023-02-16T08:21:53;96783.03;;;4.32;75.30
25420;BME280;13354;48.174;11.566;2023-02-16T08:24:18;96776.84;;;4.54;74.96
25420;BME280;13354;48.174;11.566;2023-02-16T08:26:43;96777.84;;;4.63;75.23
25420;BME280;13354;48.174;11.566;2023-02-16T08:29:09;96781.44;;;4.82;74.82
25420;BME280;13354;48.174;11.566;2023-02-16T08:31:36;96778.84;;;4.92;74.36
25420;BME280;13354;48.174;11.566;2023-02-16T08:34:02;96778.69;;;5.15;73.48
25420;BME280;13354;48.174;11.566;2023-02-16T08:36:29;96781.28;;;5.36;73.29
25420;BME280;13354;48.174;11.566;2023-02-16T08:38:56;96771.94;;;5.52;72.82
25420;BME280;13354;48.174;11.566;2023-02-16T08:41:22;96779.16;;;5.60;73.17
25420;BME280;13354;48.174;11.566;2023-02-16T08:43:48;96781.41;;;5.74;71.80
25420;BME280;13354;48.174;11.566;2023-02-16T08:46:14;96779.09;;;5.91;71.21
25420;BME280;13354;48.174;11.566;2023-02-16T08:48:39;96780.78;;;6.01;70.93
25420;BME280;13354;48.174;11.566;2023-02-16T08:51:05;96775.81;;;6.18;70.35
25420;BME280;13354;48.174;11.566;2023-02-16T08:53:31;96779.25;;;6.18;70.42
25420;BME280;13354;48.174;11.566;2023-02-16T08:55:58;96777.06;;;6.43;70.41
25420;BME280;13354;48.174;11.566;2023-02-16T08:58:24;96769.84;;;6.54;71.29
25420;BME280;13354;48.174;11.566;2023-02-16T09:00:51;96773.16;;;6.76;72.24
25420;BME280;13354;48.174;11.566;2023-02-16T09:03:16;96771.97;;;7.08;70.30
25420;BME280;13354;48.174;11.566;2023-02-16T09:05:43;96771.47;;;7.32;66.79
25420;BME280;13354;48.174;11.566;2023-02-16T09:08:09;96778.03;;;7.55;65.43
25420;BME280;13354;48.174;11.566;2023-02-16T09:10:34;96769.13;;;7.66;65.42
25420;BME280;13354;48.174;11.566;2023-02-16T09:12:59;96780.06;;;7.89;63.91
25420;BME280;13354;48.174;11.566;2023-02-16T09:15:25;96779.34;;;7.96;62.74
25420;BME280;13354;48.174;11.566;2023-02-16T09:17:51;96778.06;;;8.18;62.59
25420;BME280;13354;48.174;11.566;2023-02-16T09:20:17;96769.78;;;8.49;61.07
25420;BME280;13354;48.174;11.566;2023-02-16T09:22:44;96782.53;;;8.36;60.92
25420;BME280;13354;48.174;11.566;2023-02-16T09:25:10;96775.38;;;8.46;60.19
25420;BME280;13354;48.174;11.566;2023-02-16T09:27:36;96777.63;;;8.77;59.27
25420;BME280;13354;48.174;11.566;2023-02-16T09:30:01;96775.25;;;9.17;58.08
25420;BME280;13354;48.174;11.566;2023-02-16T09:32:27;96776.19;;;9.42;57.07
25420;BME280;13354;48.174;11.566;2023-02-16T09:34:53;96771.91;;;9.41;56.23
25420;BME280;13354;48.174;11.566;2023-02-16T09:37:18;96775.53;;;9.83;55.71
25420;BME280;13354;48.174;11.566;2023-02-16T09:39:43;96770.75;;;9.86;54.73
25420;BME280;13354;48.174;11.566;2023-02-16T09:42:13;96780.75;;;10.09;53.96
25420;BME280;13354;48.174;11.566;2023-02-16T09:44:57;96774.22;;;10.70;52.68
25420;BME280;13354;48.174;11.566;2023-02-16T09:47:28;96768.41;;;10.99;51.06
25420;BME280;13354;48.174;11.566;2023-02-16T09:49:55;96771.84;;;11.24;50.63
25420;BME280;13354;48.174;11.566;2023-02-16T09:52:25;96774.28;;;11.50;49.78
25420;BME280;13354;48.174;11.566;2023-02-16T09:54:53;96768.69;;;11.29;49.95
25420;BME280;13354;48.174;11.566;2023-02-16T10:05:39;96775.34;;;11.25;49.92
25420;BME280;13354;48.174;11.566;2023-02-16T10:08:08;96772.00;;;11.23;49.39
25420;BME280;13354;48.174;11.566;2023-02-16T10:13:28;96774.56;;;11.64;48.71
25420;BME280;13354;48.174;11.566;2023-02-16T10:15:57;96768.91;;;11.67;48.22
25420;BME280;13354;48.174;11.566;2023-02-16T10:18:33;96770.97;;;11.40;48.20
25420;BME280;13354;48.174;11.566;2023-02-16T10:21:01;96768.31;;;11.40;48.54
25420;BME280;13354;48.174;11.566;2023-02-16T10:26:05;96769.94;;;12.05;47.78
25420;BME280;13354;48.174;11.566;2023-02-16T10:31:05;96769.00;;;12.21;46.69
25420;BME280;13354;48.174;11.566;2023-02-16T10:33:45;96761.63;;;12.54;46.36
25420;BME280;13354;48.174;11.566;2023-02-16T10:36:27;96764.19;;;12.70;45.61
25420;BME280;13354;48.174;11.566;2023-02-16T10:41:36;96751.63;;;13.17;43.86
25420;BME280;13354;48.174;11.566;2023-02-16T10:44:07;96755.44;;;13.37;43.25
25420;BME280;13354;48.174;11.566;2023-02-16T10:46:37;96748.50;;;13.13;43.67
25420;BME280;13354;48.174;11.566;2023-02-16T10:49:04;96753.69;;;13.44;42.79
25420;BME280;13354;48.174;11.566;2023-02-16T10:51:35;96751.25;;;13.20;43.14
25420;BME280;13354;48.174;11.566;2023-02-16T10:54:03;96758.66;;;13.10;43.25
25420;BME280;13354;48.174;11.566;2023-02-16T10:59:23;96752.59;;;13.01;43.42
25420;BME280;13354;48.174;11.566;2023-02-16T11:01:56;96745.34;;;12.95;42.83
25420;BME280;13354;48.174;11.566;2023-02-16T11:04:36;96741.41;;;12.91;43.19
25420;BME280;13354;48.174;11.566;2023-02-16T11:07:03;96740.06;;;12.72;42.97
25420;BME280;13354;48.174;11.566;2023-02-16T11:09:30;96750.19;;;12.53;43.23
25420;BME280;13354;48.174;11.566;2023-02-16T11:11:55;96741.94;;;12.86;43.25
25420;BME280;13354;48.174;11.566;2023-02-16T11:14:22;96745.63;;;12.85;42.96
25420;BME280;13354;48.174;11.566;2023-02-16T11:16:48;96741.78;;;12.65;42.98
25420;BME280;13354;48.174;11.566;2023-02-16T11:19:25;96741.03;;;12.56;42.73
25420;BME280;13354;48.174;11.566;2023-02-16T11:21:53;96737.44;;;12.49;43.18
25420;BME280;13354;48.174;11.566;2023-02-16T11:24:35;96726.13;;;12.93;42.58
25420;BME280;13354;48.174;11.566;2023-02-16T11:29:26;96721.84;;;13.36;41.78
25420;BME280;13354;48.174;11.566;2023-02-16T11:31:52;96716.81;;;13.41;41.90
25420;BME280;13354;48.174;11.566;2023-02-16T11:37:02;96717.16;;;13.68;40.17
25420;BME280;13354;48.174;11.566;2023-02-16T11:39:29;96708.41;;;13.89;38.96
25420;BME280;13354;48.174;11.566;2023-02-16T11:41:57;96700.31;;;14.18;39.31
25420;BME280;13354;48.174;11.566;2023-02-16T11:46:49;96696.88;;;14.24;39.07
25420;BME280;13354;48.174;11.566;2023-02-16T11:49:19;96695.78;;;14.55;38.75
25420;BME280;13354;48.174;11.566;2023-02-16T11:51:45;96695.97;;;14.54;38.23
25420;BME280;13354;48.174;11.566;2023-02-16T11:54:15;96691.00;;;14.08;38.83
25420;BME280;13354;48.174;11.566;2023-02-16T11:56:40;96685.84;;;14.06;38.72
25420;BME280;13354;48.174;11.566;2023-02-16T11:59:07;96677.63;;;14.22;38.60
25420;BME280;13354;48.174;11.566;2023-02-16T12:11:47;96662.63;;;14.64;38.87
25420;BME280;13354;48.174;11.566;2023-02-16T12:14:20;96658.13;;;14.65;37.64
25420;BME280;13354;48.174;11.566;2023-02-16T12:16:57;96663.53;;;14.50;36.19
25420;BME280;13354;48.174;11.566;2023-02-16T12:21:59;96658.59;;;14.25;35.86
25420;BME280;13354;48.174;11.566;2023-02-16T12:27:15;96639.00;;;14.55;35.75
25420;BME280;13354;48.174;11.566;2023-02-16T12:45:26;96629.91;;;15.46;33.68
25420;BME280;13354;48.174;11.566;2023-02-16T12:48:10;96637.72;;;15.55;33.86
25420;BME280;13354;48.174;11.566;2023-02-16T12:50:39;96625.59;;;15.52;33.02
25420;BME280;13354;48.174;11.566;2023-02-16T12:53:19;96624.88;;;15.72;33.02
25420;BME280;13354;48.174;11.566;2023-02-16T12:55:51;96613.69;;;16.09;32.90
25420;BME280;13354;48.174;11.566;2023-02-16T12:58:24;96615.69;;;15.87;32.74
25420;BME280;13354;48.174;11.566;2023-02-16T13:00:59;96611.84;;;16.16;32.47
25420;BME280;13354;48.174;11.566;2023-02-16T13:06:02;96611.59;;;16.05;32.67
25420;BME280;13354;48.174;11.566;2023-02-16T13:08:32;96601.13;;;16.10;32.42
25420;BME280;13354;48.174;11.566;2023-02-16T13:13:34;96610.97;;;16.16;32.05
25420;BME280;13354;48.174;11.566;2023-02-16T13:16:20;96602.91;;;15.83;32.54
25420;BME280;13354;48.174;11.566;2023-02-16T13:18:48;96598.59;;;15.68;33.17
25420;BME280;13354;48.174;11.566;2023-02-16T13:21:30;96603.75;;;15.90;32.79
25420;BME280;13354;48.174;11.566;2023-02-16T13:26:37;96592.50;;;16.14;32.13
25420;BME280;13354;48.174;11.566;2023-02-16T13:44:24;96584.28;;;16.76;30.74
25420;BME280;13354;48.174;11.566;2023-02-16T13:46:52;96583.44;;;16.82;31.00
25420;BME280;13354;48.174;11.566;2023-02-16T13:49:51;96577.25;;;16.88;30.57
25420;BME280;13354;48.174;11.566;2023-02-16T13:52:13;96581.81;;;16.54;31.00
25420;BME280;13354;48.174;11.566;2023-02-16T13:54:51;96577.50;;;16.53;31.04
25420;BME280;13354;48.174;11.566;2023-02-16T13:57:56;96585.31;;;16.41;31.08
25420;BME280;13354;48.174;11.566;2023-02-16T14:00:03;96586.75;;;16.31;31.48
25420;BME280;13354;48.174;11.566;2023-02-16T14:05:18;96579.75;;;16.10;31.79
25420;BME280;13354;48.174;11.566;2023-02-16T14:07:47;96576.03;;;16.31;31.99
25420;BME280;13354;48.174;11.566;2023-02-16T14:13:29;96565.78;;;16.21;31.39
25420;BME280;13354;48.174;11.566;2023-02-16T14:15:56;96564.31;;;16.38;31.60
25420;BME280;13354;48.174;11.566;2023-02-16T14:19:23;96562.69;;;16.44;31.46
25420;BME280;13354;48.174;11.566;2023-02-16T14:23:42;96559.38;;;16.69;30.76
25420;BME280;13354;48.174;11.566;2023-02-16T14:26:07;96552.81;;;16.64;30.93
25420;BME280;13354;48.174;11.566;2023-02-16T14:31:02;96554.63;;;16.64;31.05
25420;BME280;13354;48.174;11.566;2023-02-16T14:33:48;96555.91;;;16.55;31.25
25420;BME280;13354;48.174;11.566;2023-02-16T14:36:18;96545.44;;;16.53;31.30
25420;BME280;13354;48.174;11.566;2023-02-16T14:38:44;96558.38;;;16.50;31.34
25420;BME280;13354;48.174;11.566;2023-02-16T14:41:27;96554.25;;;16.40;31.01
25420;BME280;13354;48.174;11.566;2023-02-16T14:49:23;96555.28;;;16.19;29.84
25420;BME280;13354;48.174;11.566;2023-02-16T14:54:28;96549.94;;;16.00;30.15
25420;BME280;13354;48.174;11.566;2023-02-16T14:59:33;96558.59;;;16.02;30.47
25420;BME280;13354;48.174;11.566;2023-02-16T15:02:21;96562.47;;;15.92;30.96
25420;BME280;13354;48.174;11.566;2023-02-16T15:04:46;96555.69;;;15.90;31.24
25420;BME280;13354;48.174;11.566;2023-02-16T15:07:11;96567.78;;;15.79;31.42
25420;BME280;13354;48.174;11.566;2023-02-16T15:09:39;96562.19;;;15.54;31.70
25420;BME280;13354;48.174;11.566;2023-02-16T15:12:07;96550.56;;;15.82;31.27
25420;BME280;13354;48.174;11.566;2023-02-16T15:14:54;96546.66;;;15.78;31.62
25420;BME280;13354;48.174;11.566;2023-02-16T15:17:32;96542.94;;;15.79;32.04